createdAt,value
2018-02-10T00:01:10.411Z,23.00
2018-02-10T00:02:49.060Z,25.50
2018-02-10T00:04:26.755Z,22.00
2018-02-10T00:06:03.724Z,23.25
2018-02-10T00:07:40.276Z,21.50
2018-02-10T00:09:17.522Z,22.00
2018-02-10T00:10:54.911Z,25.50
2018-02-10T00:12:31.255Z,21.25
2018-02-10T00:14:08.448Z,26.75
2018-02-10T00:15:45.695Z,25.00
2018-02-10T00:17:22.425Z,24.50
2018-02-10T00:18:58.956Z,24.75
2018-02-10T00:20:35.421Z,21.25
2018-02-10T00:22:22.623Z,25.25
2018-02-10T00:24:00.323Z,21.75
2018-02-10T00:25:37.689Z,26.50
2018-02-10T00:27:15.896Z,17.50
2018-02-10T00:28:53.238Z,21.00
2018-02-10T00:30:29.881Z,21.75
2018-02-10T00:32:06.395Z,23.25
2018-02-10T00:33:43.139Z,27.75
2018-02-10T00:35:19.591Z,25.75
2018-02-10T00:36:57.151Z,23.50
2018-02-10T00:38:34.440Z,25.00
2018-02-10T00:40:11.765Z,22.00
2018-02-10T00:41:52.449Z,27.75
2018-02-10T00:43:29.231Z,21.75
2018-02-10T00:45:06.375Z,22.00
2018-02-10T00:46:43.148Z,23.00
2018-02-10T00:48:19.897Z,26.75
2018-02-10T00:49:58.454Z,19.25
2018-02-10T00:51:34.840Z,25.25
2018-02-10T00:53:12.150Z,23.25
2018-02-10T00:54:48.600Z,28.50
2018-02-10T00:56:28.870Z,22.50
2018-02-10T00:58:06.736Z,22.00
2018-02-10T00:59:43.748Z,18.50
2018-02-10T01:01:20.659Z,24.25
2018-02-10T01:02:57.164Z,25.25
2018-02-10T01:04:34.572Z,23.25
2018-02-10T01:06:12.082Z,25.00
2018-02-10T01:07:50.687Z,28.25
2018-02-10T01:09:28.803Z,20.00
2018-02-10T01:11:05.872Z,17.75
2018-02-10T01:12:43.156Z,25.75
2018-02-10T01:14:20.785Z,21.00
2018-02-10T01:15:58.541Z,21.75
2018-02-10T01:17:36.437Z,20.00
2018-02-10T01:19:14.040Z,19.75
2018-02-10T01:20:51.679Z,26.00
2018-02-10T01:22:28.942Z,21.25
2018-02-10T01:24:06.247Z,23.00
2018-02-10T01:25:45.641Z,27.00
2018-02-10T01:27:24.191Z,23.50
2018-02-10T01:29:01.052Z,22.25
2018-02-10T01:30:39.840Z,23.00
2018-02-10T01:32:17.947Z,19.25
2018-02-10T01:33:54.704Z,24.00
2018-02-10T01:35:31.200Z,23.00
2018-02-10T01:37:09.304Z,26.50
2018-02-10T01:38:47.073Z,16.75
2018-02-10T01:40:25.140Z,18.00
2018-02-10T01:42:02.025Z,16.25
2018-02-10T01:43:41.128Z,21.25
2018-02-10T01:45:21.435Z,22.75
2018-02-10T01:46:58.228Z,25.75
2018-02-10T01:48:37.428Z,29.00
2018-02-10T01:50:23.325Z,25.25
2018-02-10T01:52:00.720Z,23.75
2018-02-10T01:53:37.644Z,21.00
2018-02-10T01:55:14.633Z,23.25
2018-02-10T01:56:51.035Z,23.75
2018-02-10T01:58:28.507Z,28.75
2018-02-10T02:00:06.293Z,23.75
2018-02-10T02:01:43.988Z,20.25
2018-02-10T02:03:21.262Z,22.00
2018-02-10T02:04:59.077Z,18.75
2018-02-10T02:06:36.041Z,22.00
2018-02-10T02:08:14.921Z,15.25
2018-02-10T02:09:51.271Z,21.75
2018-02-10T02:11:27.820Z,25.50
2018-02-10T02:13:06.762Z,25.75
2018-02-10T02:14:44.984Z,27.75
2018-02-10T02:16:21.720Z,23.25
2018-02-10T02:17:59.017Z,26.25
2018-02-10T02:19:35.417Z,24.00
2018-02-10T02:21:11.647Z,19.50
2018-02-10T02:22:48.676Z,22.25
2018-02-10T02:24:27.973Z,25.75
2018-02-10T02:26:04.628Z,26.25
2018-02-10T02:27:40.937Z,26.50
2018-02-10T02:29:17.380Z,21.75
2018-02-10T02:30:54.438Z,30.00
2018-02-10T02:32:31.199Z,28.75
2018-02-10T02:34:07.948Z,19.75
2018-02-10T02:35:44.236Z,20.00
2018-02-10T02:37:24.449Z,22.75
2018-02-10T02:39:02.604Z,18.25
2018-02-10T02:40:41.816Z,15.75
2018-02-10T02:42:18.744Z,20.50
2018-02-10T02:43:56.268Z,14.25
2018-02-10T02:45:32.772Z,18.50
2018-02-10T02:47:09.191Z,18.50
2018-02-10T02:48:46.674Z,22.00
2018-02-10T02:50:26.354Z,19.75
2018-02-10T02:52:03.159Z,15.00
2018-02-10T02:53:39.593Z,20.50
2018-02-10T02:55:15.896Z,20.00
2018-02-10T02:56:53.458Z,24.50
2018-02-10T02:58:29.717Z,21.75
2018-02-10T03:00:06.443Z,21.50
2018-02-10T03:01:42.948Z,19.75
2018-02-10T03:03:20.683Z,20.00
2018-02-10T03:04:57.255Z,28.50
2018-02-10T03:06:33.595Z,26.75
2018-02-10T03:08:10.925Z,26.00
2018-02-10T03:09:48.448Z,27.75
2018-02-10T03:11:24.812Z,27.75
2018-02-10T03:13:01.487Z,27.25
2018-02-10T03:14:37.810Z,28.75
2018-02-10T03:16:16.261Z,27.00
2018-02-10T03:17:52.612Z,24.75
2018-02-10T03:19:28.835Z,29.00
2018-02-10T03:21:05.314Z,29.75
2018-02-10T03:22:42.028Z,28.25
2018-02-10T03:24:19.240Z,21.50
2018-02-10T03:25:57.495Z,23.75
2018-02-10T03:27:33.856Z,25.25
2018-02-10T03:29:11.249Z,21.75
2018-02-10T03:30:47.963Z,25.00
2018-02-10T03:32:24.810Z,28.75
2018-02-10T03:34:01.787Z,26.75
2018-02-10T03:35:38.802Z,20.00
2018-02-10T03:37:15.084Z,24.75
2018-02-10T03:38:51.518Z,22.75
2018-02-10T03:40:28.511Z,28.50
2018-02-10T03:42:06.554Z,23.25
2018-02-10T03:43:44.270Z,25.25
2018-02-10T03:45:20.887Z,24.00
2018-02-10T03:47:00.134Z,24.50
2018-02-10T03:48:37.063Z,27.50
2018-02-10T03:50:13.716Z,26.50
2018-02-10T03:51:50.303Z,26.50
2018-02-10T03:53:28.064Z,27.50
2018-02-10T03:55:06.110Z,23.75
2018-02-10T03:56:43.108Z,20.75
2018-02-10T03:58:19.324Z,29.50
2018-02-10T03:59:55.600Z,26.00
2018-02-10T04:01:32.653Z,23.00
2018-02-10T04:03:10.609Z,22.75
2018-02-10T04:04:47.495Z,21.75
2018-02-10T04:06:24.270Z,23.75
2018-02-10T04:08:01.723Z,15.50
2018-02-10T04:09:39.290Z,27.00
2018-02-10T04:11:17.345Z,28.00
2018-02-10T04:12:53.781Z,29.75
2018-02-10T04:14:31.542Z,29.75
2018-02-10T04:16:07.922Z,24.50
2018-02-10T04:17:45.139Z,26.75
2018-02-10T04:19:21.476Z,26.75
2018-02-10T04:20:58.254Z,31.75
2018-02-10T04:22:34.539Z,23.50
2018-02-10T04:24:10.928Z,23.00
2018-02-10T04:25:47.627Z,24.50
2018-02-10T04:27:26.814Z,20.00
2018-02-10T04:29:03.886Z,20.75
2018-02-10T04:30:40.488Z,25.75
2018-02-10T04:32:17.704Z,19.50
2018-02-10T04:33:54.517Z,23.75
2018-02-10T04:35:31.176Z,20.25
2018-02-10T04:37:07.444Z,21.75
2018-02-10T04:38:43.899Z,25.50
2018-02-10T04:40:21.303Z,24.00
2018-02-10T04:41:57.557Z,19.75
2018-02-10T04:43:33.916Z,27.75
2018-02-10T04:45:10.244Z,23.75
2018-02-10T04:46:47.333Z,22.25
2018-02-10T04:48:23.706Z,24.50
2018-02-10T04:50:00.403Z,23.00
2018-02-10T04:51:36.731Z,21.00
2018-02-10T04:53:13.451Z,25.25
2018-02-10T04:54:50.569Z,27.50
2018-02-10T04:56:26.815Z,25.25
2018-02-10T04:58:04.284Z,22.25
2018-02-10T04:59:41.775Z,27.25
2018-02-10T05:01:19.246Z,25.75
2018-02-10T05:02:55.569Z,27.00
2018-02-10T05:04:31.821Z,24.75
2018-02-10T05:06:15.083Z,26.25
2018-02-10T05:07:51.573Z,25.75
2018-02-10T05:09:29.123Z,25.25
2018-02-10T05:11:05.540Z,26.75
2018-02-10T05:12:42.073Z,22.75
2018-02-10T05:14:18.396Z,28.50
2018-02-10T05:15:55.074Z,23.25
2018-02-10T05:17:32.154Z,26.25
2018-02-10T05:19:08.969Z,28.25
2018-02-10T05:20:45.836Z,23.75
2018-02-10T05:22:22.177Z,27.25
2018-02-10T05:24:00.130Z,26.00
2018-02-10T05:25:37.770Z,28.75
2018-02-10T05:27:14.923Z,26.75
2018-02-10T05:28:53.460Z,25.25
2018-02-10T05:30:31.228Z,27.75
2018-02-10T05:33:42.419Z,28.00
2018-02-10T05:35:20.489Z,29.75
2018-02-10T05:36:56.913Z,18.75
2018-02-10T05:38:33.726Z,22.00
2018-02-10T05:40:10.492Z,19.75
2018-02-10T05:41:47.376Z,22.25
2018-02-10T05:43:23.869Z,23.50
2018-02-10T05:45:00.583Z,21.00
2018-02-10T05:46:36.935Z,23.75
2018-02-10T05:48:13.300Z,20.75
2018-02-10T05:49:50.372Z,21.50
2018-02-10T05:51:27.202Z,27.00
2018-02-10T05:53:03.729Z,24.50
2018-02-10T05:54:40.112Z,24.50
2018-02-10T05:56:16.497Z,24.00
2018-02-10T05:57:56.727Z,22.25
2018-02-10T05:59:34.363Z,22.75
2018-02-10T06:01:10.819Z,25.50
2018-02-10T06:02:47.147Z,22.25
2018-02-10T06:04:23.759Z,25.75
2018-02-10T06:06:00.019Z,20.25
2018-02-10T06:07:36.270Z,26.00
2018-02-10T06:09:12.771Z,23.75
2018-02-10T06:10:49.595Z,20.50
2018-02-10T06:12:26.403Z,21.25
2018-02-10T06:14:02.656Z,21.25
2018-02-10T06:15:39.297Z,21.00
2018-02-10T06:17:16.223Z,24.50
2018-02-10T06:18:52.426Z,24.75
2018-02-10T06:20:29.604Z,24.00
2018-02-10T06:22:05.916Z,26.00
2018-02-10T06:23:42.584Z,20.00
2018-02-10T06:25:18.847Z,23.00
2018-02-10T06:26:55.109Z,25.75
2018-02-10T06:28:31.414Z,17.50
2018-02-10T06:30:08.208Z,23.75
2018-02-10T06:31:44.479Z,19.25
2018-02-10T06:33:20.708Z,20.00
2018-02-10T06:34:57.034Z,23.50
2018-02-10T06:36:33.564Z,20.00
2018-02-10T06:38:09.899Z,19.25
2018-02-10T06:39:46.231Z,21.50
2018-02-10T06:41:22.582Z,25.00
2018-02-10T06:42:58.869Z,21.50
2018-02-10T06:44:35.160Z,20.25
2018-02-10T06:46:11.496Z,21.75
2018-02-10T06:47:47.761Z,25.25
2018-02-10T06:49:24.068Z,22.00
2018-02-10T06:51:00.314Z,19.25
2018-02-10T06:52:36.695Z,20.25
2018-02-10T06:54:13.618Z,21.00
2018-02-10T06:55:49.951Z,23.00
2018-02-10T06:57:27.045Z,24.25
2018-02-10T06:59:03.232Z,24.25
2018-02-10T07:00:40.413Z,23.25
2018-02-10T07:02:17.676Z,20.25
2018-02-10T07:03:54.406Z,22.75
2018-02-10T07:05:31.436Z,22.75
2018-02-10T07:07:08.074Z,23.25
2018-02-10T07:08:44.433Z,23.75
2018-02-10T07:10:20.942Z,21.75
2018-02-10T07:11:57.223Z,16.75
2018-02-10T07:13:33.875Z,20.50
2018-02-10T07:15:10.240Z,20.00
2018-02-10T07:16:49.138Z,26.25
2018-02-10T07:18:25.371Z,22.75
2018-02-10T07:20:02.904Z,21.25
2018-02-10T07:21:40.052Z,24.75
2018-02-10T07:23:16.503Z,22.75
2018-02-10T07:24:52.773Z,24.75
2018-02-10T07:26:29.593Z,23.25
2018-02-10T07:28:05.859Z,25.00
2018-02-10T07:29:42.175Z,21.25
2018-02-10T07:31:18.522Z,27.75
2018-02-10T07:32:56.100Z,26.25
2018-02-10T07:34:33.805Z,26.25
2018-02-10T07:36:10.288Z,25.00
2018-02-10T07:37:46.605Z,23.00
2018-02-10T07:39:24.163Z,21.75
2018-02-10T07:41:00.431Z,23.00
2018-02-10T07:42:36.709Z,23.50
2018-02-10T07:44:13.320Z,21.00
2018-02-10T07:45:50.101Z,17.50
2018-02-10T07:47:27.149Z,21.00
2018-02-10T07:49:04.291Z,21.75
2018-02-10T07:50:40.623Z,19.25
2018-02-10T07:52:17.513Z,21.00
2018-02-10T07:53:53.831Z,21.50
2018-02-10T07:55:30.190Z,23.25
2018-02-10T07:57:06.580Z,24.00
2018-02-10T07:58:43.333Z,26.25
2018-02-10T08:00:20.431Z,26.75
2018-02-10T08:01:56.864Z,28.75
2018-02-10T08:03:34.104Z,25.25
2018-02-10T08:05:11.147Z,22.50
2018-02-10T08:06:47.557Z,23.25
2018-02-10T08:08:24.506Z,23.25
2018-02-10T08:10:00.824Z,23.00
2018-02-10T08:11:37.805Z,23.75
2018-02-10T08:13:19.113Z,24.00
2018-02-10T08:15:04.933Z,26.50
2018-02-10T08:16:41.383Z,23.25
2018-02-10T08:18:18.862Z,21.50
2018-02-10T08:19:55.219Z,21.00
2018-02-10T08:21:31.790Z,22.25
2018-02-10T08:23:08.119Z,23.75
2018-02-10T08:24:45.053Z,24.25
2018-02-10T08:26:22.066Z,25.75
2018-02-10T08:27:58.635Z,23.50
2018-02-10T08:29:34.979Z,21.75
2018-02-10T08:31:12.702Z,26.00
2018-02-10T08:32:49.113Z,23.50
2018-02-10T08:34:25.900Z,27.50
2018-02-10T08:36:03.022Z,26.25
2018-02-10T08:37:39.785Z,21.25
2018-02-10T08:39:17.324Z,19.75
2018-02-10T08:40:53.646Z,25.25
2018-02-10T08:42:29.970Z,25.75
2018-02-10T08:44:06.318Z,24.75
2018-02-10T08:45:43.026Z,18.25
2018-02-10T08:47:20.181Z,29.00
2018-02-10T08:48:57.679Z,26.50
2018-02-10T08:50:34.404Z,23.25
2018-02-10T08:52:11.692Z,26.00
2018-02-10T08:53:48.232Z,25.00
2018-02-10T08:55:25.239Z,28.00
2018-02-10T08:57:03.487Z,26.75
2018-02-10T08:58:39.956Z,25.00
2018-02-10T09:00:18.145Z,24.25
2018-02-10T09:01:54.491Z,25.25
2018-02-10T09:03:31.298Z,25.25
2018-02-10T09:05:07.798Z,24.75
2018-02-10T09:06:44.150Z,22.25
2018-02-10T09:08:20.543Z,19.50
2018-02-10T09:11:42.108Z,24.25
2018-02-10T09:13:19.661Z,22.00
2018-02-10T09:14:57.782Z,23.75
2018-02-10T09:16:35.719Z,24.50
2018-02-10T09:18:13.011Z,22.25
2018-02-10T09:19:49.324Z,19.75
2018-02-10T09:21:25.612Z,17.75
2018-02-10T09:23:02.246Z,19.25
2018-02-10T09:24:39.300Z,22.75
2018-02-10T09:26:16.072Z,22.25
2018-02-10T09:27:52.349Z,25.75
2018-02-10T09:29:30.506Z,26.50
2018-02-10T09:31:07.108Z,19.25
2018-02-10T09:32:43.552Z,25.00
2018-02-10T09:34:20.206Z,23.00
2018-02-10T09:35:57.170Z,23.75
2018-02-10T09:37:34.275Z,22.00
2018-02-10T09:39:10.552Z,23.25
2018-02-10T09:40:46.823Z,19.00
2018-02-10T09:42:23.155Z,24.25
2018-02-10T09:43:59.965Z,26.75
2018-02-10T09:45:36.400Z,27.25
2018-02-10T09:47:13.701Z,27.00
2018-02-10T09:48:51.362Z,28.00
2018-02-10T09:50:29.836Z,25.50
2018-02-10T09:52:06.896Z,27.75
2018-02-10T09:53:44.083Z,25.75
2018-02-10T09:55:21.078Z,21.50
2018-02-10T09:56:58.166Z,26.25
2018-02-10T09:58:35.394Z,24.00
2018-02-10T10:00:12.349Z,23.50
2018-02-10T10:01:49.398Z,24.00
2018-02-10T10:03:25.724Z,23.50
2018-02-10T10:05:02.004Z,23.00
2018-02-10T10:06:39.015Z,20.00
2018-02-10T10:08:29.007Z,27.50
2018-02-10T10:10:05.361Z,28.00
2018-02-10T10:11:43.034Z,22.00
2018-02-10T10:13:19.534Z,25.50
2018-02-10T10:14:56.215Z,22.00
2018-02-10T10:16:33.345Z,25.00
2018-02-10T10:18:10.443Z,19.25
2018-02-10T10:19:47.055Z,24.00
2018-02-10T10:21:23.350Z,21.75
2018-02-10T10:22:59.624Z,21.00
2018-02-10T10:24:41.660Z,20.00
2018-02-10T10:26:19.316Z,19.25
2018-02-10T10:27:57.233Z,21.75
2018-02-10T10:29:33.639Z,20.75
2018-02-10T10:31:10.159Z,18.75
2018-02-10T10:32:47.854Z,20.50
2018-02-10T10:34:24.267Z,18.00
2018-02-10T10:36:00.661Z,17.25
2018-02-10T10:37:37.070Z,24.25
2018-02-10T10:39:13.379Z,25.00
2018-02-10T10:40:50.436Z,19.50
2018-02-10T10:42:27.753Z,22.00
2018-02-10T10:44:05.121Z,21.75
2018-02-10T10:45:42.300Z,19.00
2018-02-10T10:47:18.716Z,15.50
2018-02-10T10:48:55.040Z,22.00
2018-02-10T10:50:31.940Z,23.25
2018-02-10T10:52:08.199Z,18.00
2018-02-10T10:53:45.337Z,21.00
2018-02-10T10:55:27.150Z,20.75
2018-02-10T10:57:04.281Z,18.50
2018-02-10T10:58:41.416Z,22.50
2018-02-10T11:00:24.933Z,22.50
2018-02-10T11:02:03.070Z,22.50
2018-02-10T11:03:40.087Z,19.00
2018-02-10T11:05:16.468Z,23.75
2018-02-10T11:06:54.733Z,24.25
2018-02-10T11:08:31.862Z,17.25
2018-02-10T11:10:08.806Z,16.75
2018-02-10T11:11:46.324Z,21.75
2018-02-10T11:13:22.808Z,20.00
2018-02-10T11:14:59.143Z,22.75
2018-02-10T11:16:35.889Z,21.75
2018-02-10T11:18:12.200Z,18.00
2018-02-10T11:19:48.630Z,21.00
2018-02-10T11:21:25.016Z,18.50
2018-02-10T11:23:01.701Z,23.00
2018-02-10T11:24:38.133Z,21.00
2018-02-10T11:26:15.515Z,22.25
2018-02-10T11:27:52.612Z,17.75
2018-02-10T11:29:30.815Z,18.25
2018-02-10T11:31:07.321Z,20.25
2018-02-10T11:32:43.635Z,22.00
2018-02-10T11:34:20.708Z,19.00
2018-02-10T11:35:58.152Z,18.25
2018-02-10T11:37:34.626Z,18.25
2018-02-10T11:39:11.798Z,18.75
2018-02-10T11:40:48.093Z,19.75
2018-02-10T11:42:24.979Z,19.25
2018-02-10T11:44:02.328Z,23.25
2018-02-10T11:45:38.684Z,19.50
2018-02-10T11:47:15.288Z,21.75
2018-02-10T11:48:56.492Z,19.25
2018-02-10T11:50:32.763Z,18.75
2018-02-10T11:52:09.034Z,19.00
2018-02-10T11:53:45.413Z,19.75
2018-02-10T11:55:22.202Z,20.00
2018-02-10T11:56:59.873Z,18.75
2018-02-10T11:58:36.547Z,20.00
2018-02-10T12:00:13.202Z,18.50
2018-02-10T12:01:53.754Z,22.50
2018-02-10T12:03:30.355Z,21.00
2018-02-10T12:05:06.732Z,20.00
2018-02-10T12:06:43.973Z,20.50
2018-02-10T12:08:21.533Z,21.25
2018-02-10T12:09:58.144Z,27.00
2018-02-10T12:11:34.687Z,23.50
2018-02-10T12:13:11.009Z,21.50
2018-02-10T12:14:47.724Z,19.50
2018-02-10T12:16:24.372Z,21.75
2018-02-10T12:18:01.341Z,25.50
2018-02-10T12:19:37.657Z,27.75
2018-02-10T12:21:14.420Z,28.75
2018-02-10T12:22:50.804Z,22.25
2018-02-10T12:24:29.587Z,20.75
2018-02-10T12:27:37.360Z,25.25
2018-02-10T12:29:13.652Z,21.75
2018-02-10T12:30:50.988Z,19.00
2018-02-10T12:32:27.245Z,21.25
2018-02-10T12:34:03.685Z,20.25
2018-02-10T12:35:40.098Z,16.25
2018-02-10T12:37:16.441Z,21.75
2018-02-10T12:38:53.620Z,19.75
2018-02-10T12:40:30.780Z,23.00
2018-02-10T12:42:09.402Z,21.00
2018-02-10T12:43:45.827Z,21.00
2018-02-10T12:45:22.637Z,19.00
2018-02-10T12:47:02.433Z,21.50
2018-02-10T12:48:43.652Z,19.50
2018-02-10T12:50:20.720Z,19.25
2018-02-10T12:51:57.886Z,25.25
2018-02-10T12:53:34.850Z,19.25
2018-02-10T12:55:11.711Z,21.75
2018-02-10T12:56:48.060Z,24.50
2018-02-10T12:58:27.899Z,20.00
2018-02-10T13:00:05.635Z,25.75
2018-02-10T13:01:42.917Z,25.00
2018-02-10T13:03:20.156Z,27.75
2018-02-10T13:04:56.720Z,23.25
2018-02-10T13:32:49.550Z,19.50
2018-02-10T13:34:26.103Z,17.50
2018-02-10T13:36:02.562Z,18.75
2018-02-10T13:37:42.079Z,15.25
2018-02-10T13:39:22.642Z,19.25
2018-02-10T13:41:08.798Z,22.25
2018-02-10T13:42:46.986Z,20.25
2018-02-10T13:44:23.983Z,20.25
2018-02-10T13:46:02.956Z,19.50
2018-02-10T13:47:40.395Z,19.50
2018-02-10T13:49:16.820Z,18.75
2018-02-10T13:50:53.298Z,19.25
2018-02-10T13:52:31.238Z,23.75
2018-02-10T13:54:07.978Z,20.75
2018-02-10T13:55:44.479Z,22.25
2018-02-10T13:57:21.131Z,18.75
2018-02-10T13:58:58.197Z,20.25
2018-02-10T14:00:35.094Z,17.75
2018-02-10T14:02:11.544Z,15.25
2018-02-10T14:03:49.824Z,22.25
2018-02-10T14:07:36.270Z,21.25
2018-02-10T14:09:14.841Z,19.25
2018-02-10T14:10:51.833Z,19.00
2018-02-10T14:12:40.174Z,15.25
2018-02-10T14:14:17.606Z,15.75
2018-02-10T14:15:54.550Z,19.75
2018-02-10T14:17:32.698Z,16.25
2018-02-10T14:19:14.628Z,16.25
2018-02-10T14:20:51.913Z,16.00
2018-02-10T14:22:28.751Z,12.75
2018-02-10T14:24:06.030Z,20.00
2018-02-10T14:25:42.632Z,19.25
2018-02-10T14:27:19.078Z,20.75
2018-02-10T14:28:57.000Z,20.75
2018-02-10T14:30:33.510Z,23.50
2018-02-10T14:32:21.996Z,19.75
2018-02-10T14:33:58.984Z,21.75
2018-02-10T14:35:37.453Z,21.00
2018-02-10T14:37:22.794Z,16.00
2018-02-10T14:39:00.912Z,21.75
2018-02-10T14:40:38.055Z,24.75
2018-02-10T14:42:15.255Z,18.75
2018-02-10T14:43:52.652Z,20.00
2018-02-10T14:45:30.706Z,17.75
2018-02-10T14:47:07.649Z,17.00
2018-02-10T14:48:46.729Z,19.00
2018-02-10T14:50:23.984Z,17.75
2018-02-10T14:52:00.885Z,20.75
2018-02-10T14:53:38.704Z,18.75
2018-02-10T14:55:15.188Z,18.75
2018-02-10T14:56:52.421Z,16.00
2018-02-10T14:58:28.992Z,19.50
2018-02-10T15:00:06.094Z,26.25
2018-02-10T15:01:44.274Z,20.75
2018-02-10T15:03:21.032Z,17.75
2018-02-10T15:05:04.976Z,19.75
2018-02-10T15:07:03.916Z,20.25
2018-02-10T15:08:42.091Z,19.25
2018-02-10T15:10:18.501Z,24.75
2018-02-10T15:11:54.920Z,22.00
2018-02-10T15:13:33.414Z,22.75
2018-02-10T15:15:09.896Z,18.75
2018-02-10T15:16:46.734Z,22.25
2018-02-10T15:18:28.488Z,26.25
2018-02-10T15:20:05.756Z,25.25
2018-02-10T15:21:42.527Z,22.00
2018-02-10T15:23:18.992Z,23.25
2018-02-10T15:24:55.589Z,23.50
2018-02-10T15:26:34.222Z,21.25
2018-02-10T15:28:10.527Z,23.75
2018-02-10T15:30:00.034Z,21.00
2018-02-10T15:31:49.619Z,20.50
2018-02-10T15:34:43.368Z,25.50
2018-02-10T15:36:22.263Z,25.25
2018-02-10T15:37:58.930Z,24.50
2018-02-10T15:39:35.863Z,25.75
2018-02-10T15:41:12.400Z,21.00
2018-02-10T15:42:49.218Z,22.25
2018-02-10T15:44:25.551Z,27.25
2018-02-10T15:46:02.637Z,25.75
2018-02-10T15:47:39.001Z,25.50
2018-02-10T15:49:15.582Z,28.75
2018-02-10T15:50:52.370Z,25.75
2018-02-10T15:52:29.871Z,26.75
2018-02-10T15:54:06.627Z,34.25
2018-02-10T15:55:43.810Z,27.25
2018-02-10T15:57:22.000Z,24.25
2018-02-10T15:58:58.906Z,22.75
2018-02-10T16:00:36.031Z,24.00
2018-02-10T16:02:12.784Z,24.00
2018-02-10T16:03:49.280Z,26.75
2018-02-10T17:23:24.740Z,18.00
2018-02-10T17:25:06.146Z,18.50
2018-02-10T17:27:01.699Z,18.25
2018-02-10T17:28:39.249Z,18.75
2018-02-10T17:30:17.252Z,13.00
2018-02-10T17:31:53.963Z,17.50
2018-02-10T17:33:30.362Z,17.75
2018-02-10T17:35:08.856Z,17.00
2018-02-10T17:36:45.386Z,17.00
2018-02-10T17:38:21.924Z,17.25
2018-02-10T17:39:58.324Z,18.25
2018-02-10T17:41:35.517Z,14.75
2018-02-10T17:43:11.976Z,17.75
2018-02-10T17:44:49.740Z,15.50
2018-02-10T17:46:26.496Z,20.50
2018-02-10T17:48:06.494Z,17.75
2018-02-10T17:49:45.324Z,19.00
2018-02-10T17:51:28.368Z,18.00
2018-02-10T17:53:06.225Z,17.75
2018-02-10T17:54:43.036Z,20.75
2018-02-10T17:56:19.520Z,18.25
2018-02-10T17:57:55.879Z,20.00
2018-02-10T17:59:32.288Z,17.25
2018-02-10T18:01:09.691Z,18.50
2018-02-10T18:02:46.802Z,17.00
2018-02-10T18:04:23.287Z,17.00
2018-02-10T18:06:00.357Z,17.00
2018-02-10T18:07:37.514Z,17.25
2018-02-10T18:09:14.445Z,19.25
2018-02-10T18:10:51.571Z,18.50
2018-02-10T18:12:28.178Z,17.50
2018-02-10T18:14:06.009Z,17.75
2018-02-10T18:15:43.153Z,20.00
2018-02-10T18:17:23.662Z,14.25
2018-02-10T18:19:00.812Z,18.75
2018-02-10T18:20:38.264Z,20.25
2018-02-10T18:22:15.597Z,20.25
2018-02-10T18:23:52.963Z,20.50
2018-02-10T18:25:30.668Z,22.00
2018-02-10T18:27:08.038Z,19.25
2018-02-10T18:28:44.999Z,25.75
2018-02-10T18:30:22.197Z,21.00
2018-02-10T18:32:02.946Z,19.00
2018-02-10T18:33:40.932Z,20.50
2018-02-10T18:35:18.361Z,22.75
2018-02-10T18:36:55.443Z,23.00
2018-02-10T18:38:32.433Z,18.00
2018-02-10T18:40:09.321Z,21.75
2018-02-10T18:41:46.378Z,21.75
2018-02-10T18:43:23.630Z,17.00
2018-02-10T18:45:00.606Z,23.50
2018-02-10T18:46:37.933Z,21.75
2018-02-10T18:48:15.149Z,23.00
2018-02-10T18:49:52.243Z,19.50
2018-02-10T18:51:29.157Z,22.00
2018-02-10T18:53:05.981Z,20.00
2018-02-10T18:54:43.877Z,21.75
2018-02-10T18:56:20.971Z,19.25
2018-02-10T18:57:59.020Z,19.25
2018-02-10T18:59:36.874Z,22.00
2018-02-10T19:01:13.898Z,17.50
2018-02-10T19:02:50.758Z,20.00
2018-02-10T19:04:28.695Z,17.00
2018-02-10T19:06:06.212Z,18.50
2018-02-10T19:07:43.959Z,17.75
2018-02-10T19:09:20.390Z,18.00
2018-02-10T19:10:57.303Z,15.75
2018-02-10T19:12:34.782Z,18.50
2018-02-10T19:14:11.260Z,11.75
2018-02-10T19:15:48.469Z,16.25
2018-02-10T19:17:25.561Z,12.25
2018-02-10T19:19:03.756Z,13.00
2018-02-10T19:20:40.862Z,12.25
2018-02-10T19:22:18.527Z,7.75
2018-02-10T19:23:55.498Z,12.00
2018-02-10T19:25:33.104Z,14.50
2018-02-10T19:27:10.145Z,13.50
2018-02-10T19:28:46.576Z,14.00
2018-02-10T19:30:25.730Z,13.25
2018-02-10T19:32:03.662Z,12.00
2018-02-10T19:33:40.166Z,12.50
2018-02-10T19:35:17.173Z,13.00
2018-02-10T19:36:54.605Z,12.50
2018-02-10T19:38:32.163Z,14.00
2018-02-10T19:40:09.326Z,13.00
2018-02-10T19:41:46.353Z,11.00
2018-02-10T19:43:23.553Z,14.00
2018-02-10T19:45:00.418Z,13.00
2018-02-10T19:46:38.415Z,11.00
2018-02-10T19:48:15.355Z,12.75
2018-02-10T19:49:52.827Z,14.00
2018-02-10T19:51:31.836Z,12.00
2018-02-10T19:53:08.795Z,13.75
2018-02-10T19:54:45.867Z,15.50
2018-02-10T19:56:23.308Z,10.00
2018-02-10T19:58:00.338Z,10.00
2018-02-10T19:59:37.976Z,14.50
2018-02-10T20:01:15.124Z,12.50
2018-02-10T20:02:51.718Z,18.75
2018-02-10T20:04:29.970Z,20.00
2018-02-10T20:06:06.460Z,13.00
2018-02-10T20:07:43.821Z,17.00
2018-02-10T20:09:21.558Z,16.25
2018-02-10T20:10:58.997Z,14.75
2018-02-10T20:12:36.141Z,13.50
2018-02-10T20:14:13.095Z,16.00
2018-02-10T20:15:50.313Z,13.50
2018-02-10T20:17:28.233Z,12.75
2018-02-10T20:19:05.205Z,14.00
2018-02-10T20:20:42.095Z,18.25
2018-02-10T20:22:18.755Z,16.75
2018-02-10T20:23:56.263Z,14.00
2018-02-10T20:25:33.309Z,14.00
2018-02-10T20:27:10.575Z,16.00
2018-02-10T20:28:47.574Z,13.75
2018-02-10T20:30:27.252Z,14.50
2018-02-10T20:32:05.080Z,15.00
2018-02-10T20:33:42.262Z,17.00
2018-02-10T20:35:18.845Z,9.75
2018-02-10T20:36:57.066Z,16.75
2018-02-10T20:38:34.286Z,15.75
2018-02-10T20:40:12.206Z,15.25
2018-02-10T20:41:48.674Z,13.25
2018-02-10T20:43:26.209Z,15.00
2018-02-10T20:45:03.942Z,14.75
2018-02-10T20:46:40.835Z,17.25
2018-02-10T20:48:17.876Z,14.75
2018-02-10T20:49:56.157Z,15.75
2018-02-10T20:51:32.552Z,18.25
2018-02-10T20:53:09.581Z,15.75
2018-02-10T20:54:46.516Z,17.00
2018-02-10T20:56:23.903Z,17.75
2018-02-10T20:58:00.918Z,15.25
2018-02-10T20:59:37.959Z,10.75
2018-02-10T21:01:15.418Z,14.75
2018-02-10T21:02:52.817Z,11.75
2018-02-10T21:04:29.877Z,10.25
2018-02-10T21:06:06.673Z,9.25
2018-02-10T21:07:44.422Z,10.00
2018-02-10T21:09:21.703Z,10.75
2018-02-10T21:10:59.680Z,14.00
2018-02-10T21:12:36.694Z,12.50
2018-02-10T21:14:14.270Z,13.00
2018-02-10T21:15:52.604Z,13.75
2018-02-10T21:17:29.129Z,14.25
2018-02-10T21:19:05.521Z,10.25
2018-02-10T21:20:42.759Z,10.00
2018-02-10T21:22:19.835Z,15.00
2018-02-10T21:23:57.626Z,14.00
2018-02-10T21:25:35.201Z,13.00
2018-02-10T21:27:12.467Z,14.75
2018-02-10T21:28:49.939Z,14.75
2018-02-10T21:30:29.022Z,13.00
2018-02-10T21:32:06.423Z,12.00
2018-02-10T21:33:43.507Z,12.50
2018-02-10T21:35:21.807Z,10.25
2018-02-10T21:36:59.639Z,12.75
2018-02-10T21:38:37.195Z,15.50
2018-02-10T21:40:14.150Z,10.00
2018-02-10T21:41:50.937Z,12.50
2018-02-10T21:43:27.858Z,8.00
2018-02-10T21:45:05.107Z,13.00
2018-02-10T21:46:42.999Z,15.00
2018-02-10T21:48:20.656Z,13.00
2018-02-10T21:50:03.480Z,13.25
2018-02-10T21:51:41.455Z,12.00
2018-02-10T21:53:18.761Z,11.00
2018-02-10T21:54:56.446Z,10.50
2018-02-10T21:56:33.639Z,15.75
2018-02-10T21:58:13.266Z,16.50
2018-02-10T21:59:49.982Z,19.75
2018-02-10T22:01:27.580Z,12.00
2018-02-10T22:03:08.369Z,9.00
2018-02-10T22:04:53.622Z,15.00
2018-02-10T22:06:30.086Z,11.75
2018-02-10T22:08:08.079Z,12.75
2018-02-10T22:09:45.612Z,10.50
2018-02-10T22:11:22.016Z,12.25
2018-02-10T22:13:02.199Z,11.75
2018-02-10T22:14:40.580Z,14.25
2018-02-10T22:16:17.085Z,9.25
2018-02-10T22:17:54.061Z,7.00
2018-02-10T22:19:30.660Z,8.75
2018-02-10T22:21:08.886Z,9.50
2018-02-10T22:22:47.693Z,9.50
2018-02-10T22:24:24.763Z,10.00
2018-02-10T22:26:02.665Z,9.75
2018-02-10T22:27:40.145Z,8.75
2018-02-10T22:29:18.867Z,8.75
2018-02-10T22:30:56.787Z,9.75
2018-02-10T22:32:34.626Z,7.00
2018-02-10T22:34:13.790Z,7.00
2018-02-10T22:35:50.719Z,11.00
2018-02-10T22:37:28.330Z,10.75
2018-02-10T22:39:04.928Z,7.00
2018-02-10T22:40:43.378Z,8.00
2018-02-10T22:42:20.351Z,5.50
2018-02-10T22:43:56.778Z,7.75
2018-02-10T22:45:35.104Z,10.00
2018-02-10T22:47:11.823Z,10.25
2018-02-10T22:48:48.681Z,7.75